Proctor, West Virginia
Current Conditions -  °F | °C
As of 5:53 PM on Friday 19 Dec 2014 (Local Time) from KHLG Reporting Station
Overcast Overcast  
Wind Chill: 24°   Ceiling: 2300
Heat Index: 29°   Visibility: 10mi
Dew Point: 24°   Wind: 5mph
Humidity: 82%   Direction: 270°W
Pressure: 30.23"   Gusts: NA
Location:  39.71°N, 80.82°W
Report Text: KHLG 192253Z 27004KT 10SM OVC023 M02/M04 A3023 RMK AO2 SLP255 T10171044
Loading
Personal Weather Stations






























Interactive Weather Map New forecast layout! Learn more

10-Day Weather Forecast

Advertisements
Track Severe Weather on mobile